sensor_id;sensor_type;location;lat;lon;timestamp;temperature;humidity
56861;DHT22;42744;51.094;3.490;2023-07-20T00:02:15;16.30;99.90
56861;DHT22;42744;51.094;3.490;2023-07-20T00:04:41;16.30;99.90
56861;DHT22;42744;51.094;3.490;2023-07-20T00:07:07;16.20;99.90
56861;DHT22;42744;51.094;3.490;2023-07-20T00:09:33;16.10;99.90
56861;DHT22;42744;51.094;3.490;2023-07-20T00:11:59;16.10;99.90
56861;DHT22;42744;51.094;3.490;2023-07-20T00:14:26;16.00;99.90
56861;DHT22;42744;51.094;3.490;2023-07-20T00:16:52;16.00;99.90
56861;DHT22;42744;51.094;3.490;2023-07-20T00:19:27;15.90;99.90
56861;DHT22;42744;51.094;3.490;2023-07-20T00:21:54;15.80;99.90
56861;DHT22;42744;51.094;3.490;2023-07-20T00:24:20;15.80;99.90
56861;DHT22;42744;51.094;3.490;2023-07-20T00:26:47;15.80;99.90
56861;DHT22;42744;51.094;3.490;2023-07-20T00:29:13;15.80;99.90
56861;DHT22;42744;51.094;3.490;2023-07-20T00:31:39;15.70;99.90
56861;DHT22;42744;51.094;3.490;2023-07-20T00:34:06;15.70;99.90
56861;DHT22;42744;51.094;3.490;2023-07-20T00:36:33;15.70;99.90
56861;DHT22;42744;51.094;3.490;2023-07-20T00:39:02;15.70;99.90
56861;DHT22;42744;51.094;3.490;2023-07-20T00:41:28;15.60;99.90
56861;DHT22;42744;51.094;3.490;2023-07-20T00:43:55;15.60;99.90
56861;DHT22;42744;51.094;3.490;2023-07-20T00:46:23;15.60;99.90
56861;DHT22;42744;51.094;3.490;2023-07-20T00:48:53;15.60;99.90
56861;DHT22;42744;51.094;3.490;2023-07-20T00:51:21;15.50;99.90
56861;DHT22;42744;51.094;3.490;2023-07-20T00:53:47;15.50;99.90
56861;DHT22;42744;51.094;3.490;2023-07-20T00:56:15;15.50;99.90
56861;DHT22;42744;51.094;3.490;2023-07-20T00:58:41;15.40;99.90
56861;DHT22;42744;51.094;3.490;2023-07-20T01:01:07;15.40;99.90
56861;DHT22;42744;51.094;3.490;2023-07-20T01:03:33;15.40;99.90
56861;DHT22;42744;51.094;3.490;2023-07-20T01:08:49;15.30;99.90
56861;DHT22;42744;51.094;3.490;2023-07-20T01:14:05;15.20;99.90
56861;DHT22;42744;51.094;3.490;2023-07-20T01:16:33;15.10;99.90
56861;DHT22;42744;51.094;3.490;2023-07-20T01:18:59;15.10;99.90
56861;DHT22;42744;51.094;3.490;2023-07-20T01:21:39;15.00;99.90
56861;DHT22;42744;51.094;3.490;2023-07-20T01:32:43;15.00;99.90
56861;DHT22;42744;51.094;3.490;2023-07-20T01:35:11;15.00;99.90
56861;DHT22;42744;51.094;3.490;2023-07-20T01:37:46;14.90;99.90
56861;DHT22;42744;51.094;3.490;2023-07-20T01:40:14;14.90;99.90
56861;DHT22;42744;51.094;3.490;2023-07-20T01:42:49;14.90;99.90
56861;DHT22;42744;51.094;3.490;2023-07-20T01:45:17;14.90;99.90
56861;DHT22;42744;51.094;3.490;2023-07-20T01:47:42;14.80;99.90
56861;DHT22;42744;51.094;3.490;2023-07-20T01:50:09;14.80;99.90
56861;DHT22;42744;51.094;3.490;2023-07-20T01:52:36;14.80;99.90
56861;DHT22;42744;51.094;3.490;2023-07-20T01:55:03;14.80;99.90
56861;DHT22;42744;51.094;3.490;2023-07-20T01:57:31;14.80;99.90
56861;DHT22;42744;51.094;3.490;2023-07-20T01:59:57;14.80;99.90
56861;DHT22;42744;51.094;3.490;2023-07-20T02:02:26;14.80;99.90
56861;DHT22;42744;51.094;3.490;2023-07-20T02:04:54;14.80;99.90
56861;DHT22;42744;51.094;3.490;2023-07-20T02:07:20;14.80;99.90
56861;DHT22;42744;51.094;3.490;2023-07-20T02:09:46;14.90;99.90
56861;DHT22;42744;51.094;3.490;2023-07-20T02:12:13;14.90;99.90
56861;DHT22;42744;51.094;3.490;2023-07-20T02:14:38;14.90;99.90
56861;DHT22;42744;51.094;3.490;2023-07-20T02:17:04;14.90;99.90
56861;DHT22;42744;51.094;3.490;2023-07-20T02:19:31;15.00;99.90
56861;DHT22;42744;51.094;3.490;2023-07-20T02:21:57;15.00;99.90
56861;DHT22;42744;51.094;3.490;2023-07-20T02:24:23;15.00;99.90
56861;DHT22;42744;51.094;3.490;2023-07-20T02:26:51;15.00;99.90
56861;DHT22;42744;51.094;3.490;2023-07-20T02:29:17;15.00;99.90
56861;DHT22;42744;51.094;3.490;2023-07-20T02:31:43;15.00;99.90
56861;DHT22;42744;51.094;3.490;2023-07-20T02:34:09;15.10;99.90
56861;DHT22;42744;51.094;3.490;2023-07-20T02:36:35;15.10;99.90
56861;DHT22;42744;51.094;3.490;2023-07-20T02:39:01;15.10;99.90
56861;DHT22;42744;51.094;3.490;2023-07-20T02:41:32;15.10;99.90
56861;DHT22;42744;51.094;3.490;2023-07-20T02:43:58;15.10;99.90
56861;DHT22;42744;51.094;3.490;2023-07-20T02:46:24;15.10;99.90
56861;DHT22;42744;51.094;3.490;2023-07-20T02:48:51;15.10;99.90
56861;DHT22;42744;51.094;3.490;2023-07-20T02:51:17;15.10;99.90
56861;DHT22;42744;51.094;3.490;2023-07-20T02:53:43;15.20;99.90
56861;DHT22;42744;51.094;3.490;2023-07-20T02:56:09;15.20;99.90
56861;DHT22;42744;51.094;3.490;2023-07-20T02:58:35;15.20;99.90
56861;DHT22;42744;51.094;3.490;2023-07-20T03:01:02;15.20;99.90
56861;DHT22;42744;51.094;3.490;2023-07-20T03:03:29;15.20;99.90
56861;DHT22;42744;51.094;3.490;2023-07-20T03:05:55;15.20;99.90
56861;DHT22;42744;51.094;3.490;2023-07-20T03:08:23;15.20;99.90
56861;DHT22;42744;51.094;3.490;2023-07-20T03:10:50;15.30;99.90
56861;DHT22;42744;51.094;3.490;2023-07-20T03:13:16;15.30;99.90
56861;DHT22;42744;51.094;3.490;2023-07-20T03:15:42;15.30;99.90
56861;DHT22;42744;51.094;3.490;2023-07-20T03:18:08;15.30;99.90
56861;DHT22;42744;51.094;3.490;2023-07-20T03:20:35;15.30;99.90
56861;DHT22;42744;51.094;3.490;2023-07-20T03:23:02;15.30;99.90
56861;DHT22;42744;51.094;3.490;2023-07-20T03:25:28;15.30;99.90
56861;DHT22;42744;51.094;3.490;2023-07-20T03:27:54;15.30;99.90
56861;DHT22;42744;51.094;3.490;2023-07-20T03:30:21;15.30;99.90
56861;DHT22;42744;51.094;3.490;2023-07-20T03:32:47;15.30;99.90
56861;DHT22;42744;51.094;3.490;2023-07-20T03:35:14;15.30;99.90
56861;DHT22;42744;51.094;3.490;2023-07-20T03:37:41;15.30;99.90
56861;DHT22;42744;51.094;3.490;2023-07-20T03:40:08;15.30;99.90
56861;DHT22;42744;51.094;3.490;2023-07-20T03:42:34;15.30;99.90
56861;DHT22;42744;51.094;3.490;2023-07-20T03:45:00;15.30;99.90
56861;DHT22;42744;51.094;3.490;2023-07-20T03:47:26;15.30;99.90
56861;DHT22;42744;51.094;3.490;2023-07-20T03:49:52;15.30;99.90
56861;DHT22;42744;51.094;3.490;2023-07-20T03:52:18;15.30;99.90
56861;DHT22;42744;51.094;3.490;2023-07-20T03:54:44;15.30;99.90
56861;DHT22;42744;51.094;3.490;2023-07-20T03:57:11;15.40;99.90
56861;DHT22;42744;51.094;3.490;2023-07-20T03:59:38;15.30;99.90
56861;DHT22;42744;51.094;3.490;2023-07-20T04:02:05;15.30;99.90
56861;DHT22;42744;51.094;3.490;2023-07-20T04:04:31;15.30;99.90
56861;DHT22;42744;51.094;3.490;2023-07-20T04:06:57;15.40;99.90
56861;DHT22;42744;51.094;3.490;2023-07-20T04:09:23;15.40;99.90
56861;DHT22;42744;51.094;3.490;2023-07-20T04:11:49;15.30;99.90
56861;DHT22;42744;51.094;3.490;2023-07-20T04:14:15;15.40;99.90
56861;DHT22;42744;51.094;3.490;2023-07-20T04:16:41;15.30;99.90
56861;DHT22;42744;51.094;3.490;2023-07-20T04:19:10;15.40;99.90
56861;DHT22;42744;51.094;3.490;2023-07-20T04:21:40;15.30;99.90
56861;DHT22;42744;51.094;3.490;2023-07-20T04:24:07;15.40;99.90
56861;DHT22;42744;51.094;3.490;2023-07-20T04:26:33;15.40;99.90
56861;DHT22;42744;51.094;3.490;2023-07-20T04:28:59;15.40;99.90
56861;DHT22;42744;51.094;3.490;2023-07-20T04:31:27;15.40;99.90
56861;DHT22;42744;51.094;3.490;2023-07-20T04:33:53;15.40;99.90
56861;DHT22;42744;51.094;3.490;2023-07-20T04:36:19;15.40;99.90
56861;DHT22;42744;51.094;3.490;2023-07-20T04:38:45;15.40;99.90
56861;DHT22;42744;51.094;3.490;2023-07-20T04:41:14;15.40;99.90
56861;DHT22;42744;51.094;3.490;2023-07-20T04:43:41;15.40;99.90
56861;DHT22;42744;51.094;3.490;2023-07-20T04:46:09;15.40;99.90
56861;DHT22;42744;51.094;3.490;2023-07-20T04:48:36;15.40;99.90
56861;DHT22;42744;51.094;3.490;2023-07-20T04:51:03;15.40;99.90
56861;DHT22;42744;51.094;3.490;2023-07-20T04:53:31;15.40;99.90
56861;DHT22;42744;51.094;3.490;2023-07-20T04:55:58;15.50;99.90
56861;DHT22;42744;51.094;3.490;2023-07-20T04:58:24;15.40;99.90
56861;DHT22;42744;51.094;3.490;2023-07-20T05:00:51;15.50;99.90
56861;DHT22;42744;51.094;3.490;2023-07-20T05:03:17;15.50;99.90
56861;DHT22;42744;51.094;3.490;2023-07-20T05:05:44;15.50;99.90
56861;DHT22;42744;51.094;3.490;2023-07-20T05:08:11;15.50;99.90
56861;DHT22;42744;51.094;3.490;2023-07-20T05:10:37;15.60;99.90
56861;DHT22;42744;51.094;3.490;2023-07-20T05:13:03;15.60;99.90
56861;DHT22;42744;51.094;3.490;2023-07-20T05:15:29;15.60;99.90
56861;DHT22;42744;51.094;3.490;2023-07-20T05:17:56;15.60;99.90
56861;DHT22;42744;51.094;3.490;2023-07-20T05:20:22;15.70;99.90
56861;DHT22;42744;51.094;3.490;2023-07-20T05:22:48;15.70;99.90
56861;DHT22;42744;51.094;3.490;2023-07-20T05:25:14;15.70;99.90
56861;DHT22;42744;51.094;3.490;2023-07-20T05:27:43;15.70;99.90
56861;DHT22;42744;51.094;3.490;2023-07-20T05:30:09;15.80;99.90
56861;DHT22;42744;51.094;3.490;2023-07-20T05:32:36;15.80;99.90
56861;DHT22;42744;51.094;3.490;2023-07-20T05:35:02;15.90;99.90
56861;DHT22;42744;51.094;3.490;2023-07-20T05:37:28;15.90;99.90
56861;DHT22;42744;51.094;3.490;2023-07-20T05:39:54;16.00;99.90
56861;DHT22;42744;51.094;3.490;2023-07-20T05:42:20;16.00;99.90
56861;DHT22;42744;51.094;3.490;2023-07-20T05:44:46;16.00;99.90
56861;DHT22;42744;51.094;3.490;2023-07-20T05:47:14;16.10;99.90
56861;DHT22;42744;51.094;3.490;2023-07-20T05:49:40;16.10;99.90
56861;DHT22;42744;51.094;3.490;2023-07-20T05:52:06;16.10;99.90
56861;DHT22;42744;51.094;3.490;2023-07-20T05:54:32;16.10;99.90
56861;DHT22;42744;51.094;3.490;2023-07-20T05:56:58;16.10;99.90
56861;DHT22;42744;51.094;3.490;2023-07-20T05:59:27;16.20;99.90
56861;DHT22;42744;51.094;3.490;2023-07-20T06:01:55;16.20;99.90
56861;DHT22;42744;51.094;3.490;2023-07-20T06:04:21;16.30;99.90
56861;DHT22;42744;51.094;3.490;2023-07-20T06:06:49;16.30;99.90
56861;DHT22;42744;51.094;3.490;2023-07-20T06:09:15;16.40;99.90
56861;DHT22;42744;51.094;3.490;2023-07-20T06:11:41;16.40;99.90
56861;DHT22;42744;51.094;3.490;2023-07-20T06:14:07;16.40;99.90
56861;DHT22;42744;51.094;3.490;2023-07-20T06:16:33;16.60;99.90
56861;DHT22;42744;51.094;3.490;2023-07-20T06:19:00;16.60;99.90
56861;DHT22;42744;51.094;3.490;2023-07-20T06:21:26;16.70;99.90
56861;DHT22;42744;51.094;3.490;2023-07-20T06:23:52;16.70;99.90
56861;DHT22;42744;51.094;3.490;2023-07-20T06:26:18;16.80;99.90
56861;DHT22;42744;51.094;3.490;2023-07-20T06:28:45;16.80;99.90
56861;DHT22;42744;51.094;3.490;2023-07-20T06:31:11;16.90;99.90
56861;DHT22;42744;51.094;3.490;2023-07-20T06:33:37;16.90;99.90
56861;DHT22;42744;51.094;3.490;2023-07-20T06:36:04;17.00;99.90
56861;DHT22;42744;51.094;3.490;2023-07-20T06:38:30;17.00;99.90
56861;DHT22;42744;51.094;3.490;2023-07-20T06:40:56;17.00;99.90
56861;DHT22;42744;51.094;3.490;2023-07-20T06:43:23;17.00;99.90
56861;DHT22;42744;51.094;3.490;2023-07-20T06:45:53;17.10;99.90
56861;DHT22;42744;51.094;3.490;2023-07-20T06:48:22;17.10;99.90
56861;DHT22;42744;51.094;3.490;2023-07-20T06:50:48;17.20;99.90
56861;DHT22;42744;51.094;3.490;2023-07-20T06:53:14;17.30;99.90
56861;DHT22;42744;51.094;3.490;2023-07-20T06:55:42;17.30;99.90
56861;DHT22;42744;51.094;3.490;2023-07-20T06:58:08;17.30;99.90
56861;DHT22;42744;51.094;3.490;2023-07-20T07:00:34;17.30;99.90
56861;DHT22;42744;51.094;3.490;2023-07-20T07:03:00;17.30;99.90
56861;DHT22;42744;51.094;3.490;2023-07-20T07:05:26;17.40;99.90
56861;DHT22;42744;51.094;3.490;2023-07-20T07:07:52;17.40;99.90
56861;DHT22;42744;51.094;3.490;2023-07-20T07:10:18;17.40;99.90
56861;DHT22;42744;51.094;3.490;2023-07-20T07:12:44;17.40;99.90
56861;DHT22;42744;51.094;3.490;2023-07-20T07:15:10;17.40;99.90
56861;DHT22;42744;51.094;3.490;2023-07-20T07:17:37;17.40;99.90
56861;DHT22;42744;51.094;3.490;2023-07-20T07:20:03;17.40;99.90
56861;DHT22;42744;51.094;3.490;2023-07-20T07:22:30;17.50;99.90
56861;DHT22;42744;51.094;3.490;2023-07-20T07:24:56;17.60;99.90
56861;DHT22;42744;51.094;3.490;2023-07-20T07:27:22;17.80;99.90
56861;DHT22;42744;51.094;3.490;2023-07-20T07:29:48;17.90;99.90
56861;DHT22;42744;51.094;3.490;2023-07-20T07:32:15;17.90;99.90
56861;DHT22;42744;51.094;3.490;2023-07-20T07:34:41;18.00;99.90
56861;DHT22;42744;51.094;3.490;2023-07-20T07:37:07;18.10;99.90
56861;DHT22;42744;51.094;3.490;2023-07-20T07:39:33;18.10;99.90
56861;DHT22;42744;51.094;3.490;2023-07-20T07:42:02;18.20;99.90
56861;DHT22;42744;51.094;3.490;2023-07-20T07:44:28;18.20;99.90
56861;DHT22;42744;51.094;3.490;2023-07-20T07:47:05;18.20;99.90
56861;DHT22;42744;51.094;3.490;2023-07-20T08:05:22;18.40;99.90
56861;DHT22;42744;51.094;3.490;2023-07-20T08:08:05;18.60;99.90
56861;DHT22;42744;51.094;3.490;2023-07-20T08:10:34;18.70;99.90
56861;DHT22;42744;51.094;3.490;2023-07-20T08:13:01;18.80;99.90
56861;DHT22;42744;51.094;3.490;2023-07-20T08:15:27;18.80;99.90
56861;DHT22;42744;51.094;3.490;2023-07-20T08:17:53;18.80;99.90
56861;DHT22;42744;51.094;3.490;2023-07-20T08:20:19;18.80;99.90
56861;DHT22;42744;51.094;3.490;2023-07-20T08:22:49;18.90;99.90
56861;DHT22;42744;51.094;3.490;2023-07-20T08:25:15;18.90;99.90
56861;DHT22;42744;51.094;3.490;2023-07-20T08:27:41;19.00;99.90
56861;DHT22;42744;51.094;3.490;2023-07-20T08:30:08;19.10;99.90
56861;DHT22;42744;51.094;3.490;2023-07-20T08:32:34;19.00;99.90
56861;DHT22;42744;51.094;3.490;2023-07-20T08:35:00;19.00;99.90
56861;DHT22;42744;51.094;3.490;2023-07-20T08:37:26;19.10;99.90
56861;DHT22;42744;51.094;3.490;2023-07-20T08:39:52;19.20;99.90
56861;DHT22;42744;51.094;3.490;2023-07-20T08:42:22;19.30;99.90
56861;DHT22;42744;51.094;3.490;2023-07-20T08:44:48;19.30;99.90
56861;DHT22;42744;51.094;3.490;2023-07-20T08:47:16;19.40;99.90
56861;DHT22;42744;51.094;3.490;2023-07-20T08:49:43;19.50;99.90
56861;DHT22;42744;51.094;3.490;2023-07-20T08:52:09;19.50;99.90
56861;DHT22;42744;51.094;3.490;2023-07-20T08:54:39;19.60;99.90
56861;DHT22;42744;51.094;3.490;2023-07-20T08:57:06;19.80;99.90
56861;DHT22;42744;51.094;3.490;2023-07-20T08:59:34;20.10;99.90
56861;DHT22;42744;51.094;3.490;2023-07-20T09:02:02;20.10;99.90
56861;DHT22;42744;51.094;3.490;2023-07-20T09:04:29;20.00;99.90
56861;DHT22;42744;51.094;3.490;2023-07-20T09:06:56;20.00;99.90
56861;DHT22;42744;51.094;3.490;2023-07-20T09:09:22;20.10;99.90
56861;DHT22;42744;51.094;3.490;2023-07-20T09:11:49;20.00;99.90
56861;DHT22;42744;51.094;3.490;2023-07-20T09:14:16;19.90;99.90
56861;DHT22;42744;51.094;3.490;2023-07-20T09:16:50;19.90;99.90
56861;DHT22;42744;51.094;3.490;2023-07-20T09:19:17;20.00;99.90
56861;DHT22;42744;51.094;3.490;2023-07-20T09:21:50;19.90;99.90
56861;DHT22;42744;51.094;3.490;2023-07-20T09:24:18;20.00;99.90
56861;DHT22;42744;51.094;3.490;2023-07-20T09:26:47;20.00;99.90
56861;DHT22;42744;51.094;3.490;2023-07-20T09:29:20;20.00;99.90
56861;DHT22;42744;51.094;3.490;2023-07-20T09:34:26;20.00;99.90
56861;DHT22;42744;51.094;3.490;2023-07-20T09:37:19;20.10;99.90
56861;DHT22;42744;51.094;3.490;2023-07-20T09:39:46;20.20;99.90
56861;DHT22;42744;51.094;3.490;2023-07-20T09:42:13;20.40;99.90
56861;DHT22;42744;51.094;3.490;2023-07-20T09:44:46;20.40;99.90
56861;DHT22;42744;51.094;3.490;2023-07-20T09:47:22;20.40;99.90
56861;DHT22;42744;51.094;3.490;2023-07-20T09:49:48;20.50;99.90
56861;DHT22;42744;51.094;3.490;2023-07-20T09:52:15;20.50;99.90
56861;DHT22;42744;51.094;3.490;2023-07-20T09:54:44;20.60;99.90
56861;DHT22;42744;51.094;3.490;2023-07-20T09:57:11;20.70;99.90
56861;DHT22;42744;51.094;3.490;2023-07-20T09:59:39;20.70;99.90
56861;DHT22;42744;51.094;3.490;2023-07-20T10:02:53;20.70;99.90
56861;DHT22;42744;51.094;3.490;2023-07-20T10:05:03;20.70;99.90
56861;DHT22;42744;51.094;3.490;2023-07-20T10:07:30;20.80;99.90
56861;DHT22;42744;51.094;3.490;2023-07-20T10:09:59;20.80;99.90
56861;DHT22;42744;51.094;3.490;2023-07-20T10:12:31;20.90;99.90
56861;DHT22;42744;51.094;3.490;2023-07-20T10:15:15;21.00;99.90
56861;DHT22;42744;51.094;3.490;2023-07-20T10:20:41;21.60;99.90
56861;DHT22;42744;51.094;3.490;2023-07-20T10:23:08;21.40;99.90
56861;DHT22;42744;51.094;3.490;2023-07-20T10:25:34;21.20;99.90
56861;DHT22;42744;51.094;3.490;2023-07-20T10:28:06;21.20;99.90
56861;DHT22;42744;51.094;3.490;2023-07-20T10:30:36;21.20;99.90
56861;DHT22;42744;51.094;3.490;2023-07-20T10:33:03;21.10;99.90
56861;DHT22;42744;51.094;3.490;2023-07-20T10:35:30;20.90;99.90
56861;DHT22;42744;51.094;3.490;2023-07-20T10:38:01;20.90;99.90
56861;DHT22;42744;51.094;3.490;2023-07-20T10:40:37;20.80;99.90
56861;DHT22;42744;51.094;3.490;2023-07-20T10:43:06;20.80;99.90
56861;DHT22;42744;51.094;3.490;2023-07-20T10:45:54;20.80;99.90
56861;DHT22;42744;51.094;3.490;2023-07-20T10:48:24;20.70;99.90
56861;DHT22;42744;51.094;3.490;2023-07-20T10:51:13;20.70;99.90
56861;DHT22;42744;51.094;3.490;2023-07-20T10:53:42;20.80;99.90
56861;DHT22;42744;51.094;3.490;2023-07-20T10:56:12;20.80;99.90
56861;DHT22;42744;51.094;3.490;2023-07-20T10:58:40;20.80;99.90
56861;DHT22;42744;51.094;3.490;2023-07-20T11:01:07;20.90;99.90
56861;DHT22;42744;51.094;3.490;2023-07-20T11:03:37;20.90;99.90
56861;DHT22;42744;51.094;3.490;2023-07-20T11:09:09;20.80;99.90
56861;DHT22;42744;51.094;3.490;2023-07-20T11:14:21;20.70;99.90
56861;DHT22;42744;51.094;3.490;2023-07-20T11:16:49;20.80;99.90
56861;DHT22;42744;51.094;3.490;2023-07-20T11:19:25;20.80;99.90
56861;DHT22;42744;51.094;3.490;2023-07-20T11:21:53;20.80;99.90
56861;DHT22;42744;51.094;3.490;2023-07-20T11:24:20;20.90;99.90
56861;DHT22;42744;51.094;3.490;2023-07-20T11:26:49;20.90;99.90
56861;DHT22;42744;51.094;3.490;2023-07-20T11:29:16;21.00;99.90
56861;DHT22;42744;51.094;3.490;2023-07-20T11:31:45;21.00;99.90
56861;DHT22;42744;51.094;3.490;2023-07-20T11:34:13;21.00;99.90
56861;DHT22;42744;51.094;3.490;2023-07-20T11:36:44;21.00;99.90
56861;DHT22;42744;51.094;3.490;2023-07-20T11:39:13;21.10;99.90
56861;DHT22;42744;51.094;3.490;2023-07-20T11:41:44;21.40;99.90
56861;DHT22;42744;51.094;3.490;2023-07-20T11:44:10;21.90;99.90
56861;DHT22;42744;51.094;3.490;2023-07-20T11:46:39;22.60;99.90
56861;DHT22;42744;51.094;3.490;2023-07-20T11:49:05;23.00;99.90
56861;DHT22;42744;51.094;3.490;2023-07-20T11:51:32;23.40;99.90
56861;DHT22;42744;51.094;3.490;2023-07-20T11:54:00;23.70;99.90
56861;DHT22;42744;51.094;3.490;2023-07-20T11:56:26;24.00;99.90
56861;DHT22;42744;51.094;3.490;2023-07-20T11:58:57;24.30;99.90
56861;DHT22;42744;51.094;3.490;2023-07-20T12:01:25;24.60;99.90
56861;DHT22;42744;51.094;3.490;2023-07-20T12:03:56;24.70;99.90
56861;DHT22;42744;51.094;3.490;2023-07-20T12:06:27;24.80;99.90
56861;DHT22;42744;51.094;3.490;2023-07-20T12:08:57;25.20;99.90
56861;DHT22;42744;51.094;3.490;2023-07-20T12:11:34;25.20;99.90
56861;DHT22;42744;51.094;3.490;2023-07-20T12:14:01;24.80;99.90
56861;DHT22;42744;51.094;3.490;2023-07-20T12:16:28;24.30;99.90
56861;DHT22;42744;51.094;3.490;2023-07-20T12:19:05;24.00;99.90
56861;DHT22;42744;51.094;3.490;2023-07-20T12:21:33;23.80;99.90
56861;DHT22;42744;51.094;3.490;2023-07-20T12:23:59;23.60;99.90
56861;DHT22;42744;51.094;3.490;2023-07-20T12:26:28;23.50;99.90
56861;DHT22;42744;51.094;3.490;2023-07-20T12:28:54;23.40;99.90
56861;DHT22;42744;51.094;3.490;2023-07-20T12:31:21;23.30;99.90
56861;DHT22;42744;51.094;3.490;2023-07-20T12:33:48;23.20;99.90
56861;DHT22;42744;51.094;3.490;2023-07-20T12:36:15;23.10;99.90
56861;DHT22;42744;51.094;3.490;2023-07-20T12:38:41;23.10;99.90
56861;DHT22;42744;51.094;3.490;2023-07-20T12:41:09;23.10;99.90
56861;DHT22;42744;51.094;3.490;2023-07-20T12:43:36;23.10;99.90
56861;DHT22;42744;51.094;3.490;2023-07-20T12:46:02;23.00;99.90
56861;DHT22;42744;51.094;3.490;2023-07-20T12:48:27;22.80;99.90
56861;DHT22;42744;51.094;3.490;2023-07-20T12:50:54;22.70;99.90
56861;DHT22;42744;51.094;3.490;2023-07-20T12:53:20;22.70;99.90
56861;DHT22;42744;51.094;3.490;2023-07-20T12:55:47;22.60;99.90
56861;DHT22;42744;51.094;3.490;2023-07-20T12:58:13;22.50;99.90
56861;DHT22;42744;51.094;3.490;2023-07-20T13:00:39;22.40;99.90
56861;DHT22;42744;51.094;3.490;2023-07-20T13:03:06;22.40;99.90
56861;DHT22;42744;51.094;3.490;2023-07-20T13:05:35;22.40;99.90
56861;DHT22;42744;51.094;3.490;2023-07-20T13:08:02;22.20;99.90
56861;DHT22;42744;51.094;3.490;2023-07-20T13:10:28;22.10;99.90
56861;DHT22;42744;51.094;3.490;2023-07-20T13:12:55;22.10;99.90
56861;DHT22;42744;51.094;3.490;2023-07-20T13:15:21;22.10;99.90
56861;DHT22;42744;51.094;3.490;2023-07-20T13:17:47;22.20;99.90
56861;DHT22;42744;51.094;3.490;2023-07-20T13:20:13;22.10;99.90
56861;DHT22;42744;51.094;3.490;2023-07-20T13:22:40;21.70;99.90
56861;DHT22;42744;51.094;3.490;2023-07-20T13:25:09;21.40;99.90
56861;DHT22;42744;51.094;3.490;2023-07-20T13:27:35;21.10;99.90
56861;DHT22;42744;51.094;3.490;2023-07-20T13:30:02;20.80;99.90
56861;DHT22;42744;51.094;3.490;2023-07-20T13:32:32;20.70;99.90
56861;DHT22;42744;51.094;3.490;2023-07-20T13:34:58;20.50;99.90
56861;DHT22;42744;51.094;3.490;2023-07-20T13:37:24;20.40;99.90
56861;DHT22;42744;51.094;3.490;2023-07-20T13:39:51;20.20;99.90
56861;DHT22;42744;51.094;3.490;2023-07-20T13:42:17;20.10;99.90
56861;DHT22;42744;51.094;3.490;2023-07-20T13:44:43;20.10;99.90
56861;DHT22;42744;51.094;3.490;2023-07-20T13:47:09;19.90;99.90
56861;DHT22;42744;51.094;3.490;2023-07-20T13:49:36;19.90;99.90
56861;DHT22;42744;51.094;3.490;2023-07-20T13:52:02;19.90;99.90
56861;DHT22;42744;51.094;3.490;2023-07-20T13:54:28;19.90;99.90
56861;DHT22;42744;51.094;3.490;2023-07-20T13:56:55;19.90;99.90
56861;DHT22;42744;51.094;3.490;2023-07-20T13:59:21;19.90;99.90
56861;DHT22;42744;51.094;3.490;2023-07-20T14:01:47;19.90;99.90
56861;DHT22;42744;51.094;3.490;2023-07-20T14:04:13;19.90;99.90
56861;DHT22;42744;51.094;3.490;2023-07-20T14:06:39;20.00;99.90
56861;DHT22;42744;51.094;3.490;2023-07-20T14:09:05;20.00;99.90
56861;DHT22;42744;51.094;3.490;2023-07-20T14:11:31;20.00;99.90
56861;DHT22;42744;51.094;3.490;2023-07-20T14:13:57;19.90;99.90
56861;DHT22;42744;51.094;3.490;2023-07-20T14:16:24;19.90;99.90
56861;DHT22;42744;51.094;3.490;2023-07-20T14:18:50;19.80;99.90
56861;DHT22;42744;51.094;3.490;2023-07-20T14:21:18;19.80;99.90
56861;DHT22;42744;51.094;3.490;2023-07-20T14:23:49;19.70;99.90
56861;DHT22;42744;51.094;3.490;2023-07-20T14:26:21;19.60;99.90
56861;DHT22;42744;51.094;3.490;2023-07-20T14:28:47;19.50;99.90
56861;DHT22;42744;51.094;3.490;2023-07-20T14:31:13;19.40;99.90
56861;DHT22;42744;51.094;3.490;2023-07-20T14:33:39;19.20;99.90
56861;DHT22;42744;51.094;3.490;2023-07-20T14:36:06;19.10;99.90
56861;DHT22;42744;51.094;3.490;2023-07-20T14:38:33;19.10;99.90
56861;DHT22;42744;51.094;3.490;2023-07-20T14:40:59;19.10;99.90
56861;DHT22;42744;51.094;3.490;2023-07-20T14:43:25;19.00;99.90
56861;DHT22;42744;51.094;3.490;2023-07-20T14:45:51;18.90;99.90
56861;DHT22;42744;51.094;3.490;2023-07-20T14:48:17;18.90;99.90
56861;DHT22;42744;51.094;3.490;2023-07-20T14:50:44;18.90;99.90
56861;DHT22;42744;51.094;3.490;2023-07-20T14:53:13;18.80;99.90
56861;DHT22;42744;51.094;3.490;2023-07-20T14:55:41;18.80;99.90
56861;DHT22;42744;51.094;3.490;2023-07-20T14:58:07;18.70;99.90
56861;DHT22;42744;51.094;3.490;2023-07-20T15:00:33;18.60;99.90
56861;DHT22;42744;51.094;3.490;2023-07-20T15:03:00;18.60;99.90
56861;DHT22;42744;51.094;3.490;2023-07-20T15:05:26;18.60;99.90
56861;DHT22;42744;51.094;3.490;2023-07-20T15:07:52;18.50;99.90
56861;DHT22;42744;51.094;3.490;2023-07-20T15:10:19;18.50;99.90
56861;DHT22;42744;51.094;3.490;2023-07-20T15:12:45;18.50;99.90
56861;DHT22;42744;51.094;3.490;2023-07-20T15:15:13;18.50;99.90
56861;DHT22;42744;51.094;3.490;2023-07-20T15:17:42;18.60;99.90
56861;DHT22;42744;51.094;3.490;2023-07-20T15:20:10;18.60;99.90
56861;DHT22;42744;51.094;3.490;2023-07-20T15:22:37;18.70;99.90
56861;DHT22;42744;51.094;3.490;2023-07-20T15:25:06;18.80;99.90
56861;DHT22;42744;51.094;3.490;2023-07-20T15:27:33;19.00;99.90
56861;DHT22;42744;51.094;3.490;2023-07-20T15:29:59;19.10;99.90
56861;DHT22;42744;51.094;3.490;2023-07-20T15:32:25;19.30;99.90
56861;DHT22;42744;51.094;3.490;2023-07-20T15:34:51;19.60;99.90
56861;DHT22;42744;51.094;3.490;2023-07-20T15:37:17;19.90;99.90
56861;DHT22;42744;51.094;3.490;2023-07-20T15:39:44;20.00;99.90
56861;DHT22;42744;51.094;3.490;2023-07-20T15:42:13;20.10;99.90
56861;DHT22;42744;51.094;3.490;2023-07-20T15:44:39;20.20;99.90
56861;DHT22;42744;51.094;3.490;2023-07-20T15:47:05;20.20;99.90
56861;DHT22;42744;51.094;3.490;2023-07-20T15:49:32;20.30;99.90
56861;DHT22;42744;51.094;3.490;2023-07-20T15:51:59;20.50;99.90
56861;DHT22;42744;51.094;3.490;2023-07-20T15:54:25;20.70;99.90
56861;DHT22;42744;51.094;3.490;2023-07-20T15:56:52;20.80;99.90
56861;DHT22;42744;51.094;3.490;2023-07-20T15:59:19;20.80;99.90
56861;DHT22;42744;51.094;3.490;2023-07-20T16:01:46;20.90;99.90
56861;DHT22;42744;51.094;3.490;2023-07-20T16:04:13;20.80;99.90
56861;DHT22;42744;51.094;3.490;2023-07-20T16:06:40;20.80;99.90
56861;DHT22;42744;51.094;3.490;2023-07-20T16:09:07;20.70;99.90
56861;DHT22;42744;51.094;3.490;2023-07-20T16:11:34;20.70;99.90
56861;DHT22;42744;51.094;3.490;2023-07-20T16:14:01;20.60;99.90